Time;durP1;ratioP1;P1;durP2;ratioP2;P2;SDS_P1;SDS_P2;PMS_P1;PMS_P2;Temp;Humidity;BMP_temperature;BMP_pressure;BME280_temperature;BME280_humidity;BME280_pressure;Samples;Min_cycle;Max_cycle;Signal;HPM_P1;HPM_P2
2022/09/02 00:01:36;;;;;;;2.40;1.77;;;;;;;;;;5048196;28;20191;-65
2022/09/02 00:04:05;;;;;;;2.33;1.67;;;;;;;;;;5055090;28;20261;-66
2022/09/02 00:06:32;;;;;;;4.23;2.03;;;;;;;;;;5054554;28;20219;-66
2022/09/02 00:08:59;;;;;;;4.40;1.90;;;;;;;;;;5048970;28;20731;-65
2022/09/02 00:11:43;;;;;;;3.50;1.77;;;;;;;;;;5063559;28;20494;-65
2022/09/02 00:14:12;;;;;;;5.50;2.67;;;;;;;;;;5063142;28;20187;-65
2022/09/02 00:16:59;;;;;;;7.93;3.03;;;;;;;;;;5037607;28;20696;-65
2022/09/02 00:19:26;;;;;;;7.43;3.63;;;;;;;;;;5045834;28;20186;-65
2022/09/02 00:22:10;;;;;;;6.47;2.73;;;;;;;;;;5054266;28;20171;-65
2022/09/02 00:24:37;;;;;;;7.33;2.70;;;;;;;;;;5049177;28;20556;-65
2022/09/02 00:27:22;;;;;;;3.87;2.50;;;;;;;;;;5061556;28;20667;-66
2022/09/02 00:29:48;;;;;;;6.63;3.00;;;;;;;;;;5060373;28;20608;-67
2022/09/02 00:32:15;;;;;;;4.87;2.70;;;;;;;;;;5029953;28;20218;-65
2022/09/02 00:34:42;;;;;;;3.97;2.50;;;;;;;;;;5045751;28;20201;-65
2022/09/02 00:37:09;;;;;;;6.10;2.20;;;;;;;;;;5058436;28;20239;-66
2022/09/02 00:39:36;;;;;;;4.87;2.20;;;;;;;;;;5041081;28;20219;-66
2022/09/02 00:42:03;;;;;;;5.00;2.47;;;;;;;;;;5054779;28;20191;-65
2022/09/02 00:44:29;;;;;;;3.60;2.00;;;;;;;;;;5038494;28;20192;-66
2022/09/02 00:46:56;;;;;;;4.23;2.50;;;;;;;;;;5051978;28;20604;-66
2022/09/02 00:49:24;;;;;;;6.80;2.50;;;;;;;;;;5058239;28;20534;-65
2022/09/02 00:52:09;;;;;;;4.07;2.37;;;;;;;;;;5036859;28;20191;-66
2022/09/02 00:54:40;;;;;;;3.90;2.20;;;;;;;;;;5062583;28;20194;-65
2022/09/02 00:57:08;;;;;;;2.93;1.87;;;;;;;;;;5046197;28;20672;-65
2022/09/02 00:59:38;;;;;;;3.87;2.03;;;;;;;;;;5030836;28;20654;-65
2022/09/02 01:02:08;;;;;;;3.33;2.00;;;;;;;;;;5047962;28;20213;-65
2022/09/02 01:04:35;;;;;;;4.40;2.03;;;;;;;;;;5046414;28;20468;-65
2022/09/02 01:07:03;;;;;;;4.23;2.10;;;;;;;;;;5064005;28;20220;-66
2022/09/02 01:09:32;;;;;;;2.77;2.00;;;;;;;;;;5053365;28;20183;-65
2022/09/02 01:12:02;;;;;;;4.07;2.20;;;;;;;;;;5062963;28;20191;-66
2022/09/02 01:14:29;;;;;;;5.43;2.63;;;;;;;;;;5027787;28;20764;-65
2022/09/02 01:17:16;;;;;;;6.07;2.57;;;;;;;;;;5049481;28;20162;-65
2022/09/02 01:19:44;;;;;;;3.10;2.10;;;;;;;;;;5048903;28;20293;-66
2022/09/02 01:22:29;;;;;;;2.87;1.87;;;;;;;;;;5071745;28;20810;-65
2022/09/02 01:24:56;;;;;;;3.67;2.03;;;;;;;;;;5071367;28;20185;-65
2022/09/02 01:27:23;;;;;;;5.30;2.40;;;;;;;;;;5061602;28;20190;-65
2022/09/02 01:29:51;;;;;;;4.10;2.53;;;;;;;;;;5066649;28;20548;-66
2022/09/02 01:32:18;;;;;;;3.53;1.90;;;;;;;;;;5058615;28;20191;-65
2022/09/02 01:34:46;;;;;;;3.10;1.80;;;;;;;;;;5060550;28;20763;-66
2022/09/02 01:37:12;;;;;;;4.67;2.00;;;;;;;;;;5045938;28;20670;-66
2022/09/02 01:39:39;;;;;;;2.90;1.80;;;;;;;;;;5067009;28;20218;-66
2022/09/02 01:42:24;;;;;;;4.77;1.60;;;;;;;;;;5060148;28;20197;-65
2022/09/02 01:44:51;;;;;;;3.70;2.00;;;;;;;;;;5056239;28;20187;-66
2022/09/02 01:47:36;;;;;;;3.57;1.97;;;;;;;;;;5036974;28;20594;-66
2022/09/02 01:50:07;;;;;;;3.10;1.30;;;;;;;;;;5040713;28;20202;-65
2022/09/02 01:52:51;;;;;;;2.37;1.47;;;;;;;;;;5059493;28;20178;-65
2022/09/02 01:55:18;;;;;;;1.90;1.30;;;;;;;;;;5042220;28;20194;-65
2022/09/02 01:58:03;;;;;;;2.07;1.60;;;;;;;;;;5046024;28;20748;-65
2022/09/02 02:00:30;;;;;;;4.33;1.80;;;;;;;;;;5055222;28;20869;-66
2022/09/02 02:02:57;;;;;;;4.53;2.47;;;;;;;;;;5052477;28;20198;-66
2022/09/02 02:05:24;;;;;;;3.07;2.30;;;;;;;;;;5049346;28;20321;-65
2022/09/02 02:07:52;;;;;;;4.40;1.93;;;;;;;;;;5048856;28;20230;-66
2022/09/02 02:10:19;;;;;;;4.70;2.30;;;;;;;;;;5051247;28;20650;-65
2022/09/02 02:12:47;;;;;;;3.30;2.17;;;;;;;;;;5049361;28;20195;-65
2022/09/02 02:15:16;;;;;;;4.17;2.20;;;;;;;;;;5032576;28;20192;-65
2022/09/02 02:17:43;;;;;;;2.90;1.63;;;;;;;;;;5049714;28;20191;-65
2022/09/02 02:20:10;;;;;;;3.00;1.80;;;;;;;;;;5050430;28;20225;-65
2022/09/02 02:22:38;;;;;;;3.47;1.67;;;;;;;;;;5049661;28;20186;-65
2022/09/02 02:25:22;;;;;;;3.97;1.67;;;;;;;;;;5049564;28;20674;-65
2022/09/02 02:27:51;;;;;;;4.03;1.77;;;;;;;;;;5039089;28;20655;-65
2022/09/02 02:30:36;;;;;;;2.70;1.63;;;;;;;;;;5033979;28;20174;-66
2022/09/02 02:33:04;;;;;;;3.87;1.80;;;;;;;;;;5040068;28;20195;-65
2022/09/02 02:35:31;;;;;;;2.47;1.87;;;;;;;;;;5044791;28;20565;-65
2022/09/02 02:37:58;;;;;;;2.23;1.67;;;;;;;;;;5048775;28;20294;-65
2022/09/02 02:40:29;;;;;;;2.17;1.40;;;;;;;;;;5050229;28;20190;-65
2022/09/02 02:42:56;;;;;;;3.73;1.67;;;;;;;;;;5036844;28;20195;-66
2022/09/02 02:45:23;;;;;;;3.43;1.70;;;;;;;;;;5043838;28;20219;-66
2022/09/02 02:47:51;;;;;;;3.50;1.57;;;;;;;;;;5030622;28;20195;-67
2022/09/02 02:50:20;;;;;;;3.40;1.70;;;;;;;;;;5039665;28;20217;-66
2022/09/02 02:52:47;;;;;;;2.13;1.40;;;;;;;;;;5049074;28;20202;-66
2022/09/02 02:55:16;;;;;;;3.27;1.60;;;;;;;;;;5052696;28;20199;-66
2022/09/02 02:57:43;;;;;;;2.90;1.60;;;;;;;;;;5049300;28;20187;-66
2022/09/02 03:00:12;;;;;;;2.67;1.47;;;;;;;;;;5049158;28;20222;-66
2022/09/02 03:02:39;;;;;;;2.77;1.50;;;;;;;;;;5035505;28;20234;-66
2022/09/02 03:05:25;;;;;;;2.07;1.50;;;;;;;;;;5055409;28;21020;-66
2022/09/02 03:07:52;;;;;;;1.90;1.50;;;;;;;;;;5028713;28;20282;-66
2022/09/02 03:10:21;;;;;;;1.70;1.13;;;;;;;;;;5051591;28;20214;-66
2022/09/02 03:12:48;;;;;;;3.83;1.20;;;;;;;;;;5046557;28;20246;-66
2022/09/02 03:15:17;;;;;;;3.23;1.20;;;;;;;;;;5063806;28;20666;-66
2022/09/02 03:17:45;;;;;;;1.93;1.23;;;;;;;;;;5036666;28;20670;-67
2022/09/02 03:20:14;;;;;;;4.53;2.10;;;;;;;;;;5044848;28;20191;-66
2022/09/02 03:22:46;;;;;;;4.57;1.80;;;;;;;;;;5045660;28;20625;-66
2022/09/02 03:25:32;;;;;;;4.40;1.80;;;;;;;;;;5043474;28;20337;-66
2022/09/02 03:28:16;;;;;;;2.60;1.60;;;;;;;;;;5046769;28;20245;-66
2022/09/02 03:30:44;;;;;;;5.37;1.83;;;;;;;;;;5049955;28;20260;-66
2022/09/02 03:33:16;;;;;;;3.70;2.10;;;;;;;;;;5026722;28;20211;-66
2022/09/02 03:35:44;;;;;;;3.73;1.90;;;;;;;;;;5047301;28;20187;-65
2022/09/02 03:38:11;;;;;;;4.50;1.80;;;;;;;;;;5039062;28;20702;-65
2022/09/02 03:40:38;;;;;;;4.53;1.93;;;;;;;;;;5038928;28;20195;-65
2022/09/02 03:43:06;;;;;;;4.73;1.90;;;;;;;;;;5031110;28;20190;-66
2022/09/02 03:45:50;;;;;;;5.57;2.13;;;;;;;;;;5046507;28;20206;-70
2022/09/02 03:48:17;;;;;;;5.47;2.60;;;;;;;;;;5048672;28;20186;-66
2022/09/02 03:50:45;;;;;;;3.87;2.23;;;;;;;;;;5046974;28;20207;-65
2022/09/02 03:53:17;;;;;;;7.03;3.00;;;;;;;;;;5035637;28;20191;-67
2022/09/02 03:56:05;;;;;;;6.80;2.30;;;;;;;;;;5016542;28;20180;-68
2022/09/02 03:58:32;;;;;;;6.00;2.97;;;;;;;;;;5040095;28;20202;-66
2022/09/02 04:01:00;;;;;;;4.17;2.07;;;;;;;;;;5017111;28;20198;-69
2022/09/02 04:03:27;;;;;;;4.63;2.07;;;;;;;;;;5044133;28;20284;-67
2022/09/02 04:05:54;;;;;;;4.47;2.30;;;;;;;;;;5041489;28;20272;-68
2022/09/02 04:08:23;;;;;;;5.03;1.90;;;;;;;;;;5015950;28;20199;-67
2022/09/02 04:10:52;;;;;;;6.00;1.93;;;;;;;;;;4996782;28;20209;-65
2022/09/02 04:13:19;;;;;;;4.30;1.80;;;;;;;;;;5046412;28;20696;-66
2022/09/02 04:16:08;;;;;;;3.53;1.77;;;;;;;;;;5035362;28;20182;-66
2022/09/02 04:18:36;;;;;;;4.50;2.07;;;;;;;;;;5054515;28;20675;-67
2022/09/02 04:21:03;;;;;;;3.80;2.10;;;;;;;;;;5042218;28;20547;-65
2022/09/02 04:23:32;;;;;;;4.20;2.03;;;;;;;;;;5029390;28;20527;-66
2022/09/02 04:26:02;;;;;;;3.80;1.87;;;;;;;;;;5045693;28;20214;-66
2022/09/02 04:28:29;;;;;;;3.57;2.20;;;;;;;;;;5009221;28;20653;-65
2022/09/02 04:30:56;;;;;;;3.60;2.07;;;;;;;;;;5041976;28;20659;-66
2022/09/02 04:33:23;;;;;;;5.90;2.90;;;;;;;;;;5047097;28;20297;-68
2022/09/02 04:35:51;;;;;;;6.50;2.63;;;;;;;;;;5033520;28;20673;-65
2022/09/02 04:38:19;;;;;;;4.13;2.40;;;;;;;;;;5039666;28;20198;-65
2022/09/02 04:40:46;;;;;;;2.77;1.80;;;;;;;;;;5047470;28;20214;-65
2022/09/02 04:43:31;;;;;;;4.43;1.83;;;;;;;;;;5031215;28;20178;-65
2022/09/02 04:45:58;;;;;;;4.83;2.20;;;;;;;;;;5048830;28;20677;-65
2022/09/02 04:48:43;;;;;;;5.33;2.07;;;;;;;;;;5026103;28;20187;-65
2022/09/02 04:51:17;;;;;;;3.97;2.10;;;;;;;;;;5030516;28;20221;-65
2022/09/02 04:54:04;;;;;;;3.70;1.80;;;;;;;;;;5032211;28;20271;-66
2022/09/02 04:56:34;;;;;;;5.00;2.23;;;;;;;;;;5019483;28;20196;-67
2022/09/02 04:59:02;;;;;;;4.23;2.10;;;;;;;;;;5018027;28;20714;-66
2022/09/02 05:01:31;;;;;;;5.00;1.90;;;;;;;;;;5050236;28;20194;-64
2022/09/02 05:04:08;;;;;;;3.27;1.77;;;;;;;;;;5008619;28;20300;-62
2022/09/02 05:06:43;;;;;;;6.30;1.93;;;;;;;;;;5052529;28;20685;-65
2022/09/02 05:09:16;;;;;;;3.17;1.60;;;;;;;;;;5051838;28;20663;-67
2022/09/02 05:11:47;;;;;;;4.93;1.90;;;;;;;;;;5020146;28;20206;-63
2022/09/02 05:14:16;;;;;;;3.53;1.80;;;;;;;;;;5033861;28;20207;-65
2022/09/02 05:16:44;;;;;;;4.53;2.30;;;;;;;;;;5000573;28;20195;-64
2022/09/02 05:19:14;;;;;;;5.30;1.77;;;;;;;;;;5018213;28;20195;-64
2022/09/02 05:21:46;;;;;;;3.00;1.80;;;;;;;;;;5040052;28;20199;-65
2022/09/02 05:24:21;;;;;;;2.43;2.03;;;;;;;;;;5016610;28;20199;-65
2022/09/02 05:26:53;;;;;;;3.37;1.60;;;;;;;;;;5019861;28;20219;-67
2022/09/02 05:29:22;;;;;;;4.03;1.90;;;;;;;;;;5030660;28;20634;-65
2022/09/02 05:31:50;;;;;;;6.13;2.27;;;;;;;;;;5032994;28;20198;-65
2022/09/02 05:34:19;;;;;;;5.37;2.43;;;;;;;;;;5049983;28;20210;-65
2022/09/02 05:37:04;;;;;;;4.50;2.30;;;;;;;;;;5050992;28;20174;-65
2022/09/02 05:39:33;;;;;;;5.03;2.70;;;;;;;;;;5049105;28;20211;-65
2022/09/02 05:42:00;;;;;;;5.27;2.10;;;;;;;;;;5050595;28;20206;-65
2022/09/02 05:44:30;;;;;;;4.57;2.20;;;;;;;;;;5042308;28;20199;-64
2022/09/02 05:46:58;;;;;;;4.17;2.23;;;;;;;;;;5022293;28;20225;-67
2022/09/02 05:49:26;;;;;;;4.23;2.30;;;;;;;;;;5051761;28;20193;-66
2022/09/02 05:51:58;;;;;;;7.77;2.60;;;;;;;;;;5025212;28;20674;-67
2022/09/02 05:54:32;;;;;;;3.73;2.03;;;;;;;;;;5025405;28;20204;-66
2022/09/02 05:57:03;;;;;;;3.90;2.57;;;;;;;;;;5051842;28;20199;-66
2022/09/02 05:59:56;;;;;;;4.80;1.67;;;;;;;;;;5016014;28;20202;-65
2022/09/02 06:02:38;;;;;;;4.07;1.50;;;;;;;;;;5032428;28;20195;-66
2022/09/02 06:05:10;;;;;;;7.50;1.90;;;;;;;;;;5048304;28;20246;-66
2022/09/02 06:07:42;;;;;;;10.20;3.00;;;;;;;;;;5024847;28;20234;-66
2022/09/02 06:10:10;;;;;;;6.70;2.80;;;;;;;;;;5042220;28;20194;-66
2022/09/02 06:12:37;;;;;;;5.47;2.63;;;;;;;;;;5038098;28;20190;-65
2022/09/02 06:15:09;;;;;;;3.53;2.20;;;;;;;;;;5054525;28;20206;-67
2022/09/02 06:17:38;;;;;;;4.40;2.33;;;;;;;;;;5018795;28;20961;-67
2022/09/02 06:20:07;;;;;;;7.57;2.30;;;;;;;;;;5051329;28;20195;-66
2022/09/02 06:22:36;;;;;;;6.13;2.50;;;;;;;;;;5038728;28;20183;-67
2022/09/02 06:25:22;;;;;;;5.07;2.37;;;;;;;;;;5046275;28;20310;-68
2022/09/02 06:27:50;;;;;;;3.53;2.10;;;;;;;;;;5020965;28;20215;-66
2022/09/02 06:30:17;;;;;;;6.47;1.30;;;;;;;;;;5057645;28;20245;-67
2022/09/02 06:32:45;;;;;;;4.23;1.50;;;;;;;;;;5036625;28;20275;-66
2022/09/02 06:35:18;;;;;;;7.10;2.00;;;;;;;;;;5024857;28;20839;-66
2022/09/02 06:37:45;;;;;;;4.50;1.63;;;;;;;;;;5017545;28;20190;-65
2022/09/02 06:40:13;;;;;;;5.90;1.57;;;;;;;;;;5050117;28;20223;-65
2022/09/02 06:42:40;;;;;;;2.37;1.20;;;;;;;;;;5054681;28;20194;-64
2022/09/02 06:45:44;;;;;;;2.63;1.00;;;;;;;;;;5041821;28;20236;-65
2022/09/02 06:48:12;;;;;;;5.33;1.03;;;;;;;;;;5044630;28;20360;-65
2022/09/02 06:50:56;;;;;;;7.30;2.60;;;;;;;;;;5040530;28;20262;-64
2022/09/02 06:53:23;;;;;;;3.00;0.90;;;;;;;;;;5021838;28;20674;-70
2022/09/02 06:55:51;;;;;;;2.80;0.80;;;;;;;;;;5049884;28;20191;-64
2022/09/02 06:58:19;;;;;;;3.70;0.93;;;;;;;;;;5007609;28;20568;-64
2022/09/02 07:00:46;;;;;;;2.60;1.60;;;;;;;;;;5037880;28;20542;-64
2022/09/02 07:06:01;;;;;;;3.93;1.60;;;;;;;;;;5019834;28;20239;-65
2022/09/02 07:08:50;;;;;;;4.67;1.50;;;;;;;;;;5033770;28;20219;-64
2022/09/02 07:11:21;;;;;;;6.53;1.20;;;;;;;;;;4997671;28;20195;-67
2022/09/02 07:13:50;;;;;;;5.93;1.37;;;;;;;;;;5027160;28;20203;-66
2022/09/02 07:16:21;;;;;;;5.17;1.17;;;;;;;;;;5030115;28;20196;-66
2022/09/02 07:18:55;;;;;;;3.47;1.27;;;;;;;;;;5016086;28;20206;-67
2022/09/02 07:21:23;;;;;;;1.53;0.80;;;;;;;;;;5022753;28;23349;-69
2022/09/02 07:23:51;;;;;;;2.53;0.70;;;;;;;;;;5013974;28;20204;-66
2022/09/02 07:26:18;;;;;;;1.90;0.70;;;;;;;;;;5016626;28;20231;-65
2022/09/02 07:28:46;;;;;;;2.30;0.67;;;;;;;;;;5027029;28;20212;-66
2022/09/02 07:31:13;;;;;;;0.87;0.50;;;;;;;;;;5014556;28;20278;-66
2022/09/02 07:33:43;;;;;;;1.10;0.50;;;;;;;;;;4989181;28;20226;-65
2022/09/02 07:36:15;;;;;;;1.00;0.50;;;;;;;;;;5018113;28;20666;-67
2022/09/02 07:39:00;;;;;;;2.90;0.70;;;;;;;;;;5024356;28;20779;-65
2022/09/02 07:41:28;;;;;;;1.20;0.60;;;;;;;;;;5022014;28;20296;-66
2022/09/02 07:43:55;;;;;;;1.77;0.60;;;;;;;;;;5027802;28;20217;-67
2022/09/02 07:46:30;;;;;;;1.90;0.40;;;;;;;;;;5022505;28;20859;-65
2022/09/02 07:48:58;;;;;;;1.80;0.70;;;;;;;;;;5001695;28;20204;-65
2022/09/02 07:51:25;;;;;;;1.97;0.50;;;;;;;;;;4987214;28;20196;-67
2022/09/02 07:53:59;;;;;;;1.43;0.50;;;;;;;;;;4999701;28;20285;-66
2022/09/02 07:56:44;;;;;;;0.60;0.50;;;;;;;;;;5017715;28;20174;-65
2022/09/02 07:59:11;;;;;;;2.87;0.60;;;;;;;;;;5007160;28;20227;-67
2022/09/02 08:01:58;;;;;;;0.97;0.60;;;;;;;;;;5022308;28;20187;-69
2022/09/02 08:04:25;;;;;;;2.67;0.93;;;;;;;;;;5001323;28;20231;-67
2022/09/02 08:06:52;;;;;;;2.40;0.50;;;;;;;;;;4990327;28;20216;-67
2022/09/02 08:09:19;;;;;;;1.37;0.50;;;;;;;;;;5031159;28;20200;-67
2022/09/02 08:11:47;;;;;;;0.83;0.40;;;;;;;;;;5022487;28;20199;-66
2022/09/02 08:14:16;;;;;;;0.90;0.50;;;;;;;;;;5021875;28;20196;-67
2022/09/02 08:16:44;;;;;;;1.90;0.57;;;;;;;;;;5024003;28;20275;-67
2022/09/02 08:19:11;;;;;;;2.43;0.90;;;;;;;;;;5023845;28;20207;-68
2022/09/02 08:21:38;;;;;;;2.83;0.90;;;;;;;;;;5022354;28;20231;-66
2022/09/02 08:24:05;;;;;;;2.07;0.70;;;;;;;;;;5024171;28;20202;-65
2022/09/02 08:26:35;;;;;;;1.67;0.53;;;;;;;;;;5023779;28;20199;-66
2022/09/02 08:29:21;;;;;;;3.37;0.80;;;;;;;;;;5023908;28;20191;-67
2022/09/02 08:31:49;;;;;;;2.03;0.50;;;;;;;;;;5023284;28;20187;-67
2022/09/02 08:34:20;;;;;;;1.63;0.50;;;;;;;;;;5022177;28;20241;-67
2022/09/02 08:36:47;;;;;;;0.83;0.40;;;;;;;;;;5023216;28;20539;-67
2022/09/02 08:39:22;;;;;;;1.27;0.50;;;;;;;;;;5020665;28;20949;-68
2022/09/02 08:42:04;;;;;;;1.00;0.40;;;;;;;;;;5024862;28;20198;-67
2022/09/02 08:44:32;;;;;;;0.83;0.47;;;;;;;;;;4989901;28;20659;-67
2022/09/02 08:47:17;;;;;;;3.17;0.53;;;;;;;;;;5007916;28;20566;-66
2022/09/02 08:49:45;;;;;;;1.43;0.50;;;;;;;;;;5023636;28;21049;-67
2022/09/02 08:52:15;;;;;;;1.40;0.37;;;;;;;;;;5021140;28;20222;-67
2022/09/02 08:54:47;;;;;;;1.00;0.50;;;;;;;;;;5005492;28;20196;-66
2022/09/02 08:57:15;;;;;;;1.63;0.60;;;;;;;;;;5024146;28;20257;-71
2022/09/02 08:59:42;;;;;;;4.20;0.73;;;;;;;;;;4994740;28;20191;-69
2022/09/02 09:02:19;;;;;;;1.07;0.40;;;;;;;;;;5005205;28;20188;-66
2022/09/02 09:05:04;;;;;;;2.93;0.33;;;;;;;;;;5041918;28;20242;-68
2022/09/02 09:07:50;;;;;;;2.33;0.40;;;;;;;;;;5031048;28;20787;-66
2022/09/02 09:10:20;;;;;;;0.30;0.30;;;;;;;;;;5036923;28;20193;-68
2022/09/02 09:13:07;;;;;;;1.63;0.30;;;;;;;;;;5033201;28;20219;-73
2022/09/02 09:15:55;;;;;;;0.30;0.30;;;;;;;;;;5029891;28;20218;-68
2022/09/02 09:18:30;;;;;;;1.87;0.40;;;;;;;;;;5036731;28;20202;-67
2022/09/02 09:20:57;;;;;;;0.60;0.47;;;;;;;;;;5015786;28;20236;-67
2022/09/02 09:23:32;;;;;;;0.47;0.33;;;;;;;;;;5037796;28;20202;-67
2022/09/02 09:26:17;;;;;;;2.00;0.53;;;;;;;;;;5017520;28;20175;-67
2022/09/02 09:28:48;;;;;;;1.43;0.50;;;;;;;;;;5018087;28;20218;-69
2022/09/02 09:31:23;;;;;;;0.93;0.50;;;;;;;;;;5013404;28;20279;-68
2022/09/02 09:33:57;;;;;;;1.13;0.50;;;;;;;;;;5017824;28;20684;-67
2022/09/02 09:36:41;;;;;;;1.43;0.50;;;;;;;;;;5034792;28;20546;-68
2022/09/02 09:39:17;;;;;;;2.80;0.70;;;;;;;;;;5035858;28;20226;-67
2022/09/02 09:41:45;;;;;;;1.03;0.50;;;;;;;;;;5032571;28;20678;-68
2022/09/02 09:44:28;;;;;;;0.47;0.40;;;;;;;;;;5036498;28;20203;-68
2022/09/02 09:47:05;;;;;;;3.27;0.60;;;;;;;;;;5036296;28;20285;-67
2022/09/02 09:49:32;;;;;;;1.60;0.50;;;;;;;;;;5020473;28;20187;-66
2022/09/02 09:51:59;;;;;;;0.40;0.30;;;;;;;;;;5041620;28;20278;-69
2022/09/02 09:54:26;;;;;;;0.30;0.30;;;;;;;;;;5039177;28;20195;-65
2022/09/02 09:56:53;;;;;;;0.83;0.30;;;;;;;;;;5038709;28;20190;-67
2022/09/02 09:59:55;;;;;;;5.80;0.50;;;;;;;;;;5035456;28;20195;-67
2022/09/02 10:02:23;;;;;;;0.37;0.30;;;;;;;;;;5012940;28;20276;-67
2022/09/02 10:05:23;;;;;;;1.47;0.50;;;;;;;;;;5036357;28;20601;-71
2022/09/02 10:07:52;;;;;;;1.20;0.50;;;;;;;;;;5037568;28;20218;-67
2022/09/02 10:10:20;;;;;;;0.27;0.27;;;;;;;;;;5032528;28;20191;-67
2022/09/02 10:12:48;;;;;;;0.77;0.43;;;;;;;;;;5021066;28;20195;-67
2022/09/02 10:15:16;;;;;;;1.50;0.43;;;;;;;;;;5038107;28;20266;-67
2022/09/02 10:17:46;;;;;;;1.10;0.50;;;;;;;;;;5018089;28;20194;-66
2022/09/02 10:20:30;;;;;;;0.87;0.40;;;;;;;;;;5032630;28;20597;-66
2022/09/02 10:23:12;;;;;;;1.70;0.47;;;;;;;;;;5034376;28;20245;-65
2022/09/02 10:25:58;;;;;;;3.27;0.97;;;;;;;;;;5036340;28;20187;-66
2022/09/02 10:28:44;;;;;;;1.07;0.60;;;;;;;;;;5025535;28;20210;-65
2022/09/02 10:31:17;;;;;;;1.37;0.70;;;;;;;;;;5035380;28;20203;-66
2022/09/02 10:34:03;;;;;;;1.00;0.70;;;;;;;;;;5038099;28;20547;-67
2022/09/02 10:36:36;;;;;;;1.20;0.63;;;;;;;;;;5033799;28;20203;-67
2022/09/02 10:39:15;;;;;;;1.90;0.60;;;;;;;;;;5018743;28;20203;-65
2022/09/02 10:41:44;;;;;;;0.60;0.50;;;;;;;;;;5019574;28;20191;-67
2022/09/02 10:44:26;;;;;;;0.50;0.27;;;;;;;;;;5040027;28;20656;-65
2022/09/02 10:47:05;;;;;;;8.47;1.00;;;;;;;;;;5037373;28;20245;-65
2022/09/02 10:49:32;;;;;;;0.57;0.50;;;;;;;;;;5019545;28;20186;-66
2022/09/02 10:52:11;;;;;;;0.40;0.40;;;;;;;;;;5037494;28;20199;-64
2022/09/02 10:54:51;;;;;;;0.80;0.50;;;;;;;;;;5038816;28;20201;-67
2022/09/02 10:57:43;;;;;;;1.23;0.40;;;;;;;;;;5019453;28;20605;-66
2022/09/02 11:00:10;;;;;;;2.07;0.40;;;;;;;;;;5005729;28;20277;-66
2022/09/02 11:02:40;;;;;;;0.67;0.30;;;;;;;;;;5029916;28;20653;-67
2022/09/02 11:05:17;;;;;;;1.23;0.50;;;;;;;;;;5022788;28;20235;-64
2022/09/02 11:08:24;;;;;;;4.63;0.60;;;;;;;;;;5004753;28;20220;-64
2022/09/02 11:10:57;;;;;;;0.40;0.30;;;;;;;;;;5019070;28;20192;-66
2022/09/02 11:13:48;;;;;;;0.63;0.37;;;;;;;;;;5014070;28;20180;-65
2022/09/02 11:16:16;;;;;;;1.40;0.60;;;;;;;;;;5012352;28;20703;-64
2022/09/02 11:19:04;;;;;;;0.80;0.30;;;;;;;;;;5001933;28;20183;-68
2022/09/02 11:21:46;;;;;;;0.77;0.50;;;;;;;;;;5016830;28;20184;-68
2022/09/02 11:24:32;;;;;;;0.57;0.40;;;;;;;;;;5019838;28;20202;-68
2022/09/02 11:27:10;;;;;;;0.40;0.40;;;;;;;;;;5017055;28;20203;-65
2022/09/02 11:29:57;;;;;;;0.60;0.40;;;;;;;;;;5000022;28;20184;-67
2022/09/02 11:32:24;;;;;;;1.60;0.50;;;;;;;;;;5012210;28;20192;-66
2022/09/02 11:34:53;;;;;;;0.50;0.30;;;;;;;;;;5016661;28;20204;-67
2022/09/02 11:37:41;;;;;;;1.20;0.40;;;;;;;;;;4997564;28;20198;-66
2022/09/02 11:40:11;;;;;;;0.97;0.40;;;;;;;;;;4985445;28;20199;-67
2022/09/02 11:43:17;;;;;;;0.47;0.30;;;;;;;;;;5014001;28;20200;-66
2022/09/02 11:45:47;;;;;;;1.37;0.37;;;;;;;;;;5016879;28;20194;-68
2022/09/02 11:48:35;;;;;;;1.97;0.60;;;;;;;;;;5016966;28;20298;-67
2022/09/02 11:51:08;;;;;;;0.20;0.20;;;;;;;;;;5015886;28;20200;-67
2022/09/02 11:53:41;;;;;;;0.20;0.20;;;;;;;;;;5019082;28;20227;-67
2022/09/02 11:56:16;;;;;;;1.40;0.20;;;;;;;;;;4999467;28;20719;-68
2022/09/02 11:58:46;;;;;;;0.40;0.30;;;;;;;;;;5011365;28;20668;-67
2022/09/02 12:01:33;;;;;;;0.73;0.30;;;;;;;;;;5004747;28;20742;-67
2022/09/02 12:04:20;;;;;;;0.50;0.20;;;;;;;;;;4999070;28;20255;-70
2022/09/02 12:07:07;;;;;;;4.60;0.87;;;;;;;;;;5036959;28;20744;-67
2022/09/02 12:09:41;;;;;;;2.17;0.40;;;;;;;;;;5037019;28;20277;-68
2022/09/02 12:12:30;;;;;;;0.27;0.27;;;;;;;;;;5016084;28;20229;-61
2022/09/02 12:14:57;;;;;;;0.30;0.30;;;;;;;;;;5036895;28;20190;-61
2022/09/02 12:17:36;;;;;;;0.70;0.30;;;;;;;;;;5037151;28;20550;-61
2022/09/02 12:20:06;;;;;;;0.47;0.20;;;;;;;;;;5026808;28;20191;-61
2022/09/02 12:22:37;;;;;;;0.33;0.30;;;;;;;;;;5044998;28;20210;-61
2022/09/02 12:25:32;;;;;;;0.40;0.33;;;;;;;;;;5048944;28;20278;-61
2022/09/02 12:28:23;;;;;;;0.63;0.43;;;;;;;;;;5040577;28;20590;-61
2022/09/02 12:30:55;;;;;;;0.70;0.27;;;;;;;;;;5043641;28;20198;-62
2022/09/02 12:33:31;;;;;;;0.40;0.30;;;;;;;;;;5037365;28;20186;-60
2022/09/02 12:35:59;;;;;;;0.77;0.40;;;;;;;;;;5030458;28;20213;-60
2022/09/02 12:38:43;;;;;;;0.93;0.40;;;;;;;;;;5049330;28;20178;-60
2022/09/02 12:41:13;;;;;;;2.00;0.20;;;;;;;;;;5031020;28;20214;-60
2022/09/02 12:43:59;;;;;;;3.50;0.47;;;;;;;;;;5031424;28;20244;-60
2022/09/02 12:46:27;;;;;;;1.23;0.23;;;;;;;;;;5048651;28;20190;-61
2022/09/02 12:49:17;;;;;;;0.80;0.30;;;;;;;;;;5044004;28;20274;-62
2022/09/02 12:51:58;;;;;;;1.27;0.40;;;;;;;;;;5045888;28;20218;-61
2022/09/02 12:54:31;;;;;;;0.47;0.30;;;;;;;;;;5045776;28;20194;-61
2022/09/02 12:56:58;;;;;;;0.33;0.20;;;;;;;;;;5048836;28;20282;-61
2022/09/02 12:59:29;;;;;;;0.40;0.20;;;;;;;;;;5030747;28;20214;-61
2022/09/02 13:02:03;;;;;;;1.60;0.40;;;;;;;;;;5020300;28;20225;-61
2022/09/02 13:04:35;;;;;;;0.67;0.30;;;;;;;;;;5048303;28;20228;-61
2022/09/02 13:07:14;;;;;;;1.83;0.30;;;;;;;;;;5048113;28;20229;-61
2022/09/02 13:09:50;;;;;;;1.27;0.40;;;;;;;;;;5043791;28;20632;-61
2022/09/02 13:12:32;;;;;;;2.43;0.20;;;;;;;;;;5033057;28;21004;-62
2022/09/02 13:14:59;;;;;;;1.00;0.30;;;;;;;;;;5040285;28;20198;-61
2022/09/02 13:17:28;;;;;;;1.20;0.23;;;;;;;;;;5041361;28;20195;-61
2022/09/02 13:20:19;;;;;;;1.37;0.40;;;;;;;;;;5037897;28;20191;-60
2022/09/02 13:22:46;;;;;;;0.40;0.30;;;;;;;;;;5041865;28;20193;-61
2022/09/02 13:25:21;;;;;;;4.83;0.50;;;;;;;;;;5042992;28;20186;-61
2022/09/02 13:28:00;;;;;;;1.40;0.40;;;;;;;;;;5025463;28;20199;-63
2022/09/02 13:30:46;;;;;;;1.27;0.30;;;;;;;;;;5039820;28;20208;-62
2022/09/02 13:33:32;;;;;;;1.43;0.33;;;;;;;;;;5042492;28;20183;-64
2022/09/02 13:35:59;;;;;;;0.83;0.30;;;;;;;;;;5036004;28;20218;-62
2022/09/02 13:38:43;;;;;;;0.33;0.30;;;;;;;;;;5030837;28;20166;-63
2022/09/02 13:41:10;;;;;;;7.67;1.00;;;;;;;;;;5017641;28;20277;-64
2022/09/02 13:43:37;;;;;;;0.40;0.30;;;;;;;;;;5037854;28;20193;-63
2022/09/02 13:46:04;;;;;;;0.30;0.17;;;;;;;;;;5040288;28;20336;-63
2022/09/02 13:48:31;;;;;;;0.43;0.33;;;;;;;;;;5043989;28;20211;-63
2022/09/02 13:50:59;;;;;;;0.30;0.30;;;;;;;;;;5028604;28;20280;-64
2022/09/02 13:53:27;;;;;;;1.53;0.60;;;;;;;;;;5043600;28;20190;-63
2022/09/02 13:56:14;;;;;;;1.40;0.30;;;;;;;;;;5030671;28;20183;-64
2022/09/02 13:58:58;;;;;;;0.63;0.30;;;;;;;;;;5026224;28;20191;-64
2022/09/02 14:01:29;;;;;;;0.50;0.30;;;;;;;;;;5034544;28;20214;-63
2022/09/02 14:04:14;;;;;;;0.70;0.30;;;;;;;;;;5043427;28;20254;-63
2022/09/02 14:06:42;;;;;;;3.73;1.00;;;;;;;;;;5035849;28;20195;-62
2022/09/02 14:09:23;;;;;;;0.50;0.27;;;;;;;;;;5031942;28;20236;-62
2022/09/02 14:11:50;;;;;;;0.53;0.30;;;;;;;;;;5017079;28;20203;-61
2022/09/02 14:14:18;;;;;;;0.47;0.30;;;;;;;;;;5020961;28;20193;-62
2022/09/02 14:16:45;;;;;;;0.60;0.30;;;;;;;;;;5022500;28;20194;-61
2022/09/02 14:19:15;;;;;;;0.97;0.30;;;;;;;;;;5040933;28;20411;-61
2022/09/02 14:21:48;;;;;;;1.40;0.27;;;;;;;;;;5038015;28;20195;-63
2022/09/02 14:24:18;;;;;;;0.57;0.30;;;;;;;;;;5043658;28;20206;-61
2022/09/02 14:26:46;;;;;;;0.50;0.20;;;;;;;;;;5050637;28;20191;-61
2022/09/02 14:29:14;;;;;;;0.53;0.20;;;;;;;;;;5050376;28;20695;-62
2022/09/02 14:31:41;;;;;;;0.20;0.20;;;;;;;;;;5043197;28;20672;-61
2022/09/02 14:34:27;;;;;;;0.40;0.20;;;;;;;;;;5050567;28;20191;-61
2022/09/02 14:36:54;;;;;;;0.40;0.17;;;;;;;;;;5049760;28;20911;-61
2022/09/02 14:39:51;;;;;;;0.57;0.23;;;;;;;;;;5050132;28;20178;-62
2022/09/02 14:42:18;;;;;;;0.37;0.20;;;;;;;;;;5049989;28;20222;-61
2022/09/02 14:44:45;;;;;;;0.60;0.30;;;;;;;;;;5050166;28;20558;-61
2022/09/02 14:47:14;;;;;;;0.50;0.30;;;;;;;;;;5049361;28;20191;-62
2022/09/02 14:49:48;;;;;;;1.30;0.20;;;;;;;;;;5047063;28;20211;-61
2022/09/02 14:52:32;;;;;;;1.40;0.30;;;;;;;;;;5033703;28;20182;-60
2022/09/02 14:54:59;;;;;;;0.77;0.30;;;;;;;;;;5048115;28;20213;-63
2022/09/02 14:57:30;;;;;;;0.43;0.30;;;;;;;;;;5039788;28;20263;-60
2022/09/02 15:00:00;;;;;;;0.50;0.10;;;;;;;;;;5041423;28;20202;-61
2022/09/02 15:02:27;;;;;;;0.83;0.30;;;;;;;;;;5046356;28;20599;-60
2022/09/02 15:04:54;;;;;;;1.23;0.20;;;;;;;;;;5045179;28;20269;-60
2022/09/02 15:07:21;;;;;;;0.67;0.30;;;;;;;;;;5036074;28;20196;-60
2022/09/02 15:09:52;;;;;;;0.67;0.30;;;;;;;;;;5048344;28;20226;-60
2022/09/02 15:12:23;;;;;;;3.33;0.30;;;;;;;;;;5049106;28;20190;-60
2022/09/02 15:14:50;;;;;;;0.40;0.27;;;;;;;;;;5050763;28;20199;-60
2022/09/02 15:17:17;;;;;;;1.53;0.50;;;;;;;;;;5050298;28;20215;-61
2022/09/02 15:19:45;;;;;;;0.50;0.30;;;;;;;;;;5049488;28;20512;-60
2022/09/02 15:22:11;;;;;;;5.60;0.60;;;;;;;;;;5049635;28;20222;-61